Saturday, December 15, 2018, 9:56 AM EST
Back to Local

KGED, Georgetown Sussex Co Airport

Location: Georgetown, DE, United States Lat: 38.683
Local Time: 9:56 AM EST (14:56 GMT) Lon: -75.367
Time Zone: US/Eastern Elev: 52 ft

Show me the last for .
Show Decoded

2018-12-15 09:18 METAR KGED 151418Z AUTO 06007KT 5SM -RA BR OVC004 13/12 A3005 RMK AO2 P0003
                 T01330122 =
2018-12-15 08:54 METAR KGED 151354Z AUTO 05009KT 4SM -RA BR OVC003 13/12 A3005 RMK AO2 SLP173
                 P0007 T01330122 =
2018-12-15 07:54 METAR KGED 151254Z AUTO 06009KT 6SM -RA BR OVC002 14/13 A3004 RMK AO2 SLP173
                 P0000 T01440128 =
2018-12-15 06:54 METAR KGED 151154Z AUTO 06007KT 7SM -RA OVC003 14/13 A3004 RMK AO2 SLP172 P0005
                 60038 70052 T01390128 10139 20106 56022 =
2018-12-15 06:19 METAR KGED 151119Z AUTO 06007KT 6SM -RA BR OVC003 13/12 A3005 RMK AO2 P0003
                 T01330122 =
2018-12-15 05:54 METAR KGED 151054Z AUTO 06007KT 6SM -RA BR OVC004 13/12 A3005 RMK AO2 SLP176
                 P0007 T01330122 =
2018-12-15 04:54 METAR KGED 150954Z AUTO 06005KT 6SM -RA BR OVC004 14/12 A3008 RMK AO2 CIG
                 003V008 SLP185 P0009 T01390122 =
2018-12-15 04:47 METAR KGED 150947Z AUTO 07006KT 6SM -RA BR OVC004 14/12 A3008 RMK AO2 CIG
                 003V008 P0008 T01390122 =
2018-12-15 04:37 METAR KGED 150937Z AUTO 08007KT 5SM RA BR BKN003 OVC008 14/12 A3008 RMK AO2
                 P0007 T01390122 =
2018-12-15 04:09 METAR KGED 150909Z AUTO 05005KT 4SM -RA BR OVC004 13/12 A3010 RMK AO2 P0002
                 T01280117 =
2018-12-15 03:54 METAR KGED 150854Z AUTO 06006KT 4SM -RA BR OVC003 13/12 A3011 RMK AO2 SLP194
                 P0009 60017 T01280117 58021 =
2018-12-15 02:54 METAR KGED 150754Z AUTO 06005KT 6SM -RA BR OVC003 12/11 A3014 RMK AO2 SLP204
                 P0006 T01220111 =
2018-12-15 02:20 METAR KGED 150720Z AUTO 04005KT 3SM -RA BR BKN002 BKN007 OVC022 12/11 A3014 RMK
                 AO2 P0003 T01170106 =
2018-12-15 02:15 METAR KGED 150715Z AUTO 04004KT 2 1/2SM RA BR SCT002 BKN015 OVC026 12/11 A3014
                 RMK AO2 P0002 T01170106 =
2018-12-15 01:54 METAR KGED 150654Z AUTO 07004KT 3SM -RA BR OVC002 11/10 A3014 RMK AO2 RAE0559B37
                 SLP207 P0002 T01110100 =
2018-12-15 01:26 METAR KGED 150626Z AUTO 06006KT 6SM BR BKN002 OVC085 11/09 A3016 RMK AO2 RAE0559
                 P0000 T01110094 =
2018-12-15 00:54 METAR KGED 150554Z AUTO 05005KT 7SM -RA FEW003 SCT019 OVC120 11/09 A3017 RMK AO2
                 SLP215 P0002 60014 T01110094 10117 20106 56028 =
2018-12-15 00:47 METAR KGED 150547Z AUTO 04004KT 7SM -RA SCT019 SCT055 OVC120 11/09 A3017 RMK AO2
                 P0002 T01110094 =
2018-12-15 00:22 METAR KGED 150522Z AUTO 05005KT 5SM -RA BR FEW003 BKN021 OVC060 11/09 A3018 RMK
                 AO2 P0002 T01110094 =
2018-12-14 23:54 METAR KGED 150454Z AUTO 05004KT 4SM -RA BR BKN025 BKN030 OVC043 11/09 A3019 RMK
                 AO2 SLP223 P0004 T01110094 401440028 =
2018-12-14 22:54 METAR KGED 150354Z AUTO 06004KT 5SM -RA BR BKN049 BKN055 OVC070 11/09 A3022 RMK
                 AO2 SLP234 P0003 T01060094 =
2018-12-14 21:54 METAR KGED 150254Z AUTO 06004KT 5SM -RA BR BKN080 OVC090 11/09 A3025 RMK AO2
                 SLP244 P0003 60005 T01060094 58014 =
2018-12-14 20:54 METAR KGED 150154Z AUTO 06004KT 7SM -RA FEW039 SCT060 OVC095 11/09 A3027 RMK AO2
                 SLP250 P0001 T01060094 =
2018-12-14 19:54 METAR KGED 150054Z AUTO 36005KT 9SM -RA BKN037 OVC049 11/09 A3029 RMK AO2 SLP257
                 P0001 T01110094 =
2018-12-14 18:54 METAR KGED 142354Z AUTO 05005KT 9SM -RA SCT040 SCT047 OVC055 12/09 A3029 RMK AO2
                 RAB49 SLP258 P0000 60000 T01170094 10144 20111 56008 =
2018-12-14 17:54 METAR KGED 142254Z AUTO 06004KT 10SM OVC100 11/09 A3030 RMK AO2 SLP260 T01110094
                 =
2018-12-14 16:54 METAR KGED 142154Z AUTO 07003KT 10SM SCT110 12/09 A3030 RMK AO2 SLP261 T01170094
                 =
2018-12-14 15:54 METAR KGED 142054Z AUTO 09004KT 10SM CLR 13/10 A3032 RMK AO2 SLP266 T01330100
                 56009 =
2018-12-14 14:54 METAR KGED 141954Z AUTO 15005KT 10SM CLR 14/10 A3032 RMK AO2 SLP268 T01390100 =
2018-12-14 13:54 METAR KGED 141854Z AUTO 15005KT 10SM SCT085 14/10 A3033 RMK AO2 SLP272 T01440100
                 =
2018-12-14 12:54 METAR KGED 141754Z AUTO 14005KT 10SM FEW090 14/09 A3034 RMK AO2 SLP275 T01440094
                 10144 20083 56028 =
2018-12-14 11:54 METAR KGED 141654Z AUTO 14008KT 10SM CLR 14/11 A3035 RMK AO2 SLP277 T01440106 =
2018-12-14 11:33 METAR KGED 141633Z AUTO 14010KT 10SM SCT009 14/10 A3036 RMK AO2 PRESFR T01390100
                 =
2018-12-14 10:54 METAR KGED 141554Z AUTO 16009KT 10SM BKN008 13/11 A3039 RMK AO2 CIG 006V012
                 SLP291 T01330106 =
2018-12-14 10:27 METAR KGED 141527Z AUTO 15007KT 10SM OVC009 13/11 A3041 RMK AO2 CIG 006V013
                 T01280111 =
2018-12-14 10:02 METAR KGED 141502Z AUTO 16005KT 7SM SCT005 OVC011 12/11 A3042 RMK AO2 T01220111
                 =

Support USWX by starting your Amazon purchase here.